sensor_id;sensor_type;location;lat;lon;timestamp;P1;durP1;ratioP1;P2;durP2;ratioP2
23567;SDS011;11962;50.838;4.430;2023-01-01T00:01:13;10.43;;;2.55;;
23567;SDS011;11962;50.838;4.430;2023-01-01T00:04:31;4.50;;;2.03;;
23567;SDS011;11962;50.838;4.430;2023-01-01T00:07:12;5.55;;;2.00;;
23567;SDS011;11962;50.838;4.430;2023-01-01T00:09:41;7.80;;;2.47;;
23567;SDS011;11962;50.838;4.430;2023-01-01T00:12:28;4.93;;;2.00;;
23567;SDS011;11962;50.838;4.430;2023-01-01T00:19:16;7.55;;;2.00;;
23567;SDS011;11962;50.838;4.430;2023-01-01T00:22:00;10.10;;;2.40;;
23567;SDS011;11962;50.838;4.430;2023-01-01T00:24:51;9.77;;;2.40;;
23567;SDS011;11962;50.838;4.430;2023-01-01T00:27:35;10.23;;;2.20;;
23567;SDS011;11962;50.838;4.430;2023-01-01T00:33:36;10.68;;;2.15;;
23567;SDS011;11962;50.838;4.430;2023-01-01T00:39:21;8.60;;;2.40;;
23567;SDS011;11962;50.838;4.430;2023-01-01T00:42:23;9.15;;;2.30;;
23567;SDS011;11962;50.838;4.430;2023-01-01T00:57:27;9.40;;;2.38;;
23567;SDS011;11962;50.838;4.430;2023-01-01T01:00:18;5.45;;;1.90;;
23567;SDS011;11962;50.838;4.430;2023-01-01T01:03:33;9.95;;;2.15;;
23567;SDS011;11962;50.838;4.430;2023-01-01T01:06:38;7.32;;;2.08;;
23567;SDS011;11962;50.838;4.430;2023-01-01T01:13:00;11.43;;;2.47;;
23567;SDS011;11962;50.838;4.430;2023-01-01T01:22:32;6.90;;;1.77;;
23567;SDS011;11962;50.838;4.430;2023-01-01T01:30:44;10.75;;;2.17;;
23567;SDS011;11962;50.838;4.430;2023-01-01T01:33:13;9.50;;;2.10;;
23567;SDS011;11962;50.838;4.430;2023-01-01T01:38:56;10.77;;;2.00;;
23567;SDS011;11962;50.838;4.430;2023-01-01T01:44:53;7.32;;;2.20;;
23567;SDS011;11962;50.838;4.430;2023-01-01T01:50:38;8.20;;;2.00;;
23567;SDS011;11962;50.838;4.430;2023-01-01T01:53:54;8.18;;;2.05;;
23567;SDS011;11962;50.838;4.430;2023-01-01T01:57:05;7.93;;;2.20;;
23567;SDS011;11962;50.838;4.430;2023-01-01T02:00:06;10.18;;;2.08;;
23567;SDS011;11962;50.838;4.430;2023-01-01T02:06:41;9.93;;;2.17;;
23567;SDS011;11962;50.838;4.430;2023-01-01T02:10:07;7.22;;;2.40;;
23567;SDS011;11962;50.838;4.430;2023-01-01T02:15:35;10.32;;;2.35;;
23567;SDS011;11962;50.838;4.430;2023-01-01T02:18:41;6.32;;;1.88;;
23567;SDS011;11962;50.838;4.430;2023-01-01T02:28:14;8.05;;;1.85;;
23567;SDS011;11962;50.838;4.430;2023-01-01T02:30:48;10.07;;;2.28;;
23567;SDS011;11962;50.838;4.430;2023-01-01T02:33:43;6.65;;;1.80;;
23567;SDS011;11962;50.838;4.430;2023-01-01T02:45:20;5.60;;;1.70;;
23567;SDS011;11962;50.838;4.430;2023-01-01T02:51:13;9.05;;;2.28;;
23567;SDS011;11962;50.838;4.430;2023-01-01T03:13:08;6.97;;;1.88;;
23567;SDS011;11962;50.838;4.430;2023-01-01T03:22:15;8.65;;;1.70;;
23567;SDS011;11962;50.838;4.430;2023-01-01T03:25:00;4.00;;;1.55;;
23567;SDS011;11962;50.838;4.430;2023-01-01T03:34:42;7.22;;;2.28;;
23567;SDS011;11962;50.838;4.430;2023-01-01T03:37:32;7.18;;;2.15;;
23567;SDS011;11962;50.838;4.430;2023-01-01T03:40:01;6.57;;;1.90;;
23567;SDS011;11962;50.838;4.430;2023-01-01T03:42:42;5.95;;;2.20;;
23567;SDS011;11962;50.838;4.430;2023-01-01T03:48:57;6.70;;;2.28;;
23567;SDS011;11962;50.838;4.430;2023-01-01T04:10:36;5.20;;;1.90;;
23567;SDS011;11962;50.838;4.430;2023-01-01T04:13:51;10.52;;;2.15;;
23567;SDS011;11962;50.838;4.430;2023-01-01T04:16:55;7.05;;;2.25;;
23567;SDS011;11962;50.838;4.430;2023-01-01T04:20:02;7.93;;;2.25;;
23567;SDS011;11962;50.838;4.430;2023-01-01T04:22:41;6.72;;;2.15;;
23567;SDS011;11962;50.838;4.430;2023-01-01T04:28:52;8.02;;;1.98;;
23567;SDS011;11962;50.838;4.430;2023-01-01T04:31:43;5.75;;;2.00;;
23567;SDS011;11962;50.838;4.430;2023-01-01T04:34:20;4.10;;;1.70;;
23567;SDS011;11962;50.838;4.430;2023-01-01T04:37:15;8.73;;;2.63;;
23567;SDS011;11962;50.838;4.430;2023-01-01T04:40:13;5.75;;;2.28;;
23567;SDS011;11962;50.838;4.430;2023-01-01T04:55:46;7.95;;;2.10;;
23567;SDS011;11962;50.838;4.430;2023-01-01T04:58:12;6.00;;;1.95;;
23567;SDS011;11962;50.838;4.430;2023-01-01T05:06:46;8.93;;;2.38;;
23567;SDS011;11962;50.838;4.430;2023-01-01T05:09:24;10.50;;;2.00;;
23567;SDS011;11962;50.838;4.430;2023-01-01T05:11:53;6.50;;;2.08;;
23567;SDS011;11962;50.838;4.430;2023-01-01T05:14:27;6.20;;;2.55;;
23567;SDS011;11962;50.838;4.430;2023-01-01T05:16:59;12.18;;;2.45;;
23567;SDS011;11962;50.838;4.430;2023-01-01T05:19:29;9.55;;;2.33;;
23567;SDS011;11962;50.838;4.430;2023-01-01T05:28:35;8.45;;;2.50;;
23567;SDS011;11962;50.838;4.430;2023-01-01T05:43:22;7.03;;;2.20;;
23567;SDS011;11962;50.838;4.430;2023-01-01T05:46:03;11.50;;;2.28;;
23567;SDS011;11962;50.838;4.430;2023-01-01T05:49:13;9.65;;;2.55;;
23567;SDS011;11962;50.838;4.430;2023-01-01T05:51:39;7.05;;;2.55;;
23567;SDS011;11962;50.838;4.430;2023-01-01T05:54:31;8.20;;;2.22;;
23567;SDS011;11962;50.838;4.430;2023-01-01T05:57:14;10.40;;;2.35;;
23567;SDS011;11962;50.838;4.430;2023-01-01T06:03:43;9.07;;;2.53;;
23567;SDS011;11962;50.838;4.430;2023-01-01T06:06:30;7.10;;;2.30;;
23567;SDS011;11962;50.838;4.430;2023-01-01T06:16:24;9.77;;;2.35;;
23567;SDS011;11962;50.838;4.430;2023-01-01T06:19:14;5.70;;;2.70;;
23567;SDS011;11962;50.838;4.430;2023-01-01T06:34:39;10.82;;;2.47;;
23567;SDS011;11962;50.838;4.430;2023-01-01T06:37:26;13.30;;;2.90;;
23567;SDS011;11962;50.838;4.430;2023-01-01T06:39:54;11.68;;;2.83;;
23567;SDS011;11962;50.838;4.430;2023-01-01T06:42:20;7.90;;;2.22;;
23567;SDS011;11962;50.838;4.430;2023-01-01T06:44:45;15.98;;;2.97;;
23567;SDS011;11962;50.838;4.430;2023-01-01T06:47:11;11.32;;;3.22;;
23567;SDS011;11962;50.838;4.430;2023-01-01T06:49:37;9.13;;;2.63;;
23567;SDS011;11962;50.838;4.430;2023-01-01T06:52:02;11.00;;;2.92;;
23567;SDS011;11962;50.838;4.430;2023-01-01T06:54:28;9.90;;;2.65;;
23567;SDS011;11962;50.838;4.430;2023-01-01T06:56:54;5.63;;;2.53;;
23567;SDS011;11962;50.838;4.430;2023-01-01T06:59:19;9.82;;;2.85;;
23567;SDS011;11962;50.838;4.430;2023-01-01T07:01:45;10.57;;;2.92;;
23567;SDS011;11962;50.838;4.430;2023-01-01T07:04:12;6.65;;;2.78;;
23567;SDS011;11962;50.838;4.430;2023-01-01T07:06:39;8.68;;;2.90;;
23567;SDS011;11962;50.838;4.430;2023-01-01T07:09:05;12.63;;;3.30;;
23567;SDS011;11962;50.838;4.430;2023-01-01T07:11:32;10.60;;;3.20;;
23567;SDS011;11962;50.838;4.430;2023-01-01T07:16:55;11.18;;;2.95;;
23567;SDS011;11962;50.838;4.430;2023-01-01T07:25:14;10.80;;;3.03;;
23567;SDS011;11962;50.838;4.430;2023-01-01T07:27:45;8.18;;;2.85;;
23567;SDS011;11962;50.838;4.430;2023-01-01T07:39:42;8.02;;;2.05;;
23567;SDS011;11962;50.838;4.430;2023-01-01T07:43:11;10.60;;;2.50;;
23567;SDS011;11962;50.838;4.430;2023-01-01T07:46:18;7.88;;;2.88;;
23567;SDS011;11962;50.838;4.430;2023-01-01T07:49:04;11.27;;;3.00;;
23567;SDS011;11962;50.838;4.430;2023-01-01T07:51:30;11.15;;;2.90;;
23567;SDS011;11962;50.838;4.430;2023-01-01T07:56:37;9.48;;;2.90;;
23567;SDS011;11962;50.838;4.430;2023-01-01T07:59:34;10.20;;;2.80;;
23567;SDS011;11962;50.838;4.430;2023-01-01T08:02:39;11.10;;;3.15;;
23567;SDS011;11962;50.838;4.430;2023-01-01T08:05:12;9.98;;;2.92;;
23567;SDS011;11962;50.838;4.430;2023-01-01T08:07:38;8.57;;;2.92;;
23567;SDS011;11962;50.838;4.430;2023-01-01T08:10:10;8.38;;;2.50;;
23567;SDS011;11962;50.838;4.430;2023-01-01T08:22:53;9.48;;;3.08;;
23567;SDS011;11962;50.838;4.430;2023-01-01T08:25:45;10.18;;;2.60;;
23567;SDS011;11962;50.838;4.430;2023-01-01T08:28:28;8.00;;;2.65;;
23567;SDS011;11962;50.838;4.430;2023-01-01T08:31:20;13.77;;;2.70;;
23567;SDS011;11962;50.838;4.430;2023-01-01T08:40:09;9.00;;;2.80;;
23567;SDS011;11962;50.838;4.430;2023-01-01T08:42:38;10.30;;;2.92;;
23567;SDS011;11962;50.838;4.430;2023-01-01T08:45:04;7.13;;;2.35;;
23567;SDS011;11962;50.838;4.430;2023-01-01T08:47:30;14.82;;;3.40;;
23567;SDS011;11962;50.838;4.430;2023-01-01T08:49:56;7.28;;;2.80;;
23567;SDS011;11962;50.838;4.430;2023-01-01T08:52:22;9.65;;;2.80;;
23567;SDS011;11962;50.838;4.430;2023-01-01T08:54:47;6.55;;;2.80;;
23567;SDS011;11962;50.838;4.430;2023-01-01T08:57:14;13.80;;;3.13;;
23567;SDS011;11962;50.838;4.430;2023-01-01T08:59:40;11.13;;;2.67;;
23567;SDS011;11962;50.838;4.430;2023-01-01T09:02:06;15.93;;;3.00;;
23567;SDS011;11962;50.838;4.430;2023-01-01T09:04:32;12.40;;;2.60;;
23567;SDS011;11962;50.838;4.430;2023-01-01T09:06:57;7.95;;;2.90;;
23567;SDS011;11962;50.838;4.430;2023-01-01T09:09:23;7.45;;;2.65;;
23567;SDS011;11962;50.838;4.430;2023-01-01T09:15:02;14.20;;;3.30;;
23567;SDS011;11962;50.838;4.430;2023-01-01T09:20:33;13.25;;;3.15;;
23567;SDS011;11962;50.838;4.430;2023-01-01T09:23:03;13.98;;;3.25;;
23567;SDS011;11962;50.838;4.430;2023-01-01T09:25:50;10.02;;;2.80;;
23567;SDS011;11962;50.838;4.430;2023-01-01T09:28:24;13.50;;;2.85;;
23567;SDS011;11962;50.838;4.430;2023-01-01T09:30:57;10.23;;;2.90;;
23567;SDS011;11962;50.838;4.430;2023-01-01T09:33:32;6.55;;;2.40;;
23567;SDS011;11962;50.838;4.430;2023-01-01T09:39:16;10.15;;;2.65;;
23567;SDS011;11962;50.838;4.430;2023-01-01T09:51:23;10.88;;;2.60;;
23567;SDS011;11962;50.838;4.430;2023-01-01T09:54:56;12.77;;;2.78;;
23567;SDS011;11962;50.838;4.430;2023-01-01T09:57:52;12.13;;;2.50;;
23567;SDS011;11962;50.838;4.430;2023-01-01T10:00:41;7.82;;;2.60;;
23567;SDS011;11962;50.838;4.430;2023-01-01T10:06:26;8.32;;;1.95;;
23567;SDS011;11962;50.838;4.430;2023-01-01T10:18:16;11.25;;;2.50;;
23567;SDS011;11962;50.838;4.430;2023-01-01T10:20:56;8.23;;;1.88;;
23567;SDS011;11962;50.838;4.430;2023-01-01T10:33:31;10.38;;;2.58;;
23567;SDS011;11962;50.838;4.430;2023-01-01T10:36:58;13.30;;;2.35;;
23567;SDS011;11962;50.838;4.430;2023-01-01T10:39:35;13.82;;;3.00;;
23567;SDS011;11962;50.838;4.430;2023-01-01T10:46:01;11.73;;;2.00;;
23567;SDS011;11962;50.838;4.430;2023-01-01T10:48:34;11.52;;;2.60;;
23567;SDS011;11962;50.838;4.430;2023-01-01T10:51:53;10.82;;;2.65;;
23567;SDS011;11962;50.838;4.430;2023-01-01T11:02:36;11.43;;;2.40;;
23567;SDS011;11962;50.838;4.430;2023-01-01T11:08:32;12.32;;;2.60;;
23567;SDS011;11962;50.838;4.430;2023-01-01T11:17:25;11.88;;;2.22;;
23567;SDS011;11962;50.838;4.430;2023-01-01T11:28:35;8.63;;;2.35;;
23567;SDS011;11962;50.838;4.430;2023-01-01T11:34:41;7.43;;;2.10;;
23567;SDS011;11962;50.838;4.430;2023-01-01T11:37:20;10.38;;;2.67;;
23567;SDS011;11962;50.838;4.430;2023-01-01T11:39:56;8.20;;;2.00;;
23567;SDS011;11962;50.838;4.430;2023-01-01T11:49:11;9.20;;;2.58;;
23567;SDS011;11962;50.838;4.430;2023-01-01T11:51:42;15.23;;;2.90;;
23567;SDS011;11962;50.838;4.430;2023-01-01T11:54:39;12.60;;;2.50;;
23567;SDS011;11962;50.838;4.430;2023-01-01T12:00:52;11.95;;;2.78;;
23567;SDS011;11962;50.838;4.430;2023-01-01T12:10:43;10.60;;;2.35;;
23567;SDS011;11962;50.838;4.430;2023-01-01T12:43:11;10.60;;;2.55;;
23567;SDS011;11962;50.838;4.430;2023-01-01T13:21:38;8.05;;;2.50;;
23567;SDS011;11962;50.838;4.430;2023-01-01T13:37:37;8.60;;;2.45;;
23567;SDS011;11962;50.838;4.430;2023-01-01T14:10:18;10.25;;;2.38;;
23567;SDS011;11962;50.838;4.430;2023-01-01T14:12:47;13.52;;;3.20;;
23567;SDS011;11962;50.838;4.430;2023-01-01T14:18:11;19.65;;;3.15;;
23567;SDS011;11962;50.838;4.430;2023-01-01T14:21:48;11.57;;;2.45;;
23567;SDS011;11962;50.838;4.430;2023-01-01T14:31:15;12.02;;;2.67;;
23567;SDS011;11962;50.838;4.430;2023-01-01T14:34:15;6.88;;;2.63;;
23567;SDS011;11962;50.838;4.430;2023-01-01T14:36:52;12.68;;;2.75;;
23567;SDS011;11962;50.838;4.430;2023-01-01T14:39:23;13.00;;;2.60;;
23567;SDS011;11962;50.838;4.430;2023-01-01T14:41:53;7.63;;;2.25;;
23567;SDS011;11962;50.838;4.430;2023-01-01T14:44:24;12.43;;;2.55;;
23567;SDS011;11962;50.838;4.430;2023-01-01T14:46:55;12.95;;;2.25;;
23567;SDS011;11962;50.838;4.430;2023-01-01T15:12:50;7.25;;;2.17;;
23567;SDS011;11962;50.838;4.430;2023-01-01T15:16:17;7.45;;;1.80;;
23567;SDS011;11962;50.838;4.430;2023-01-01T15:25:29;6.57;;;1.83;;
23567;SDS011;11962;50.838;4.430;2023-01-01T15:28:22;6.95;;;1.90;;
23567;SDS011;11962;50.838;4.430;2023-01-01T15:30:50;5.10;;;1.60;;
23567;SDS011;11962;50.838;4.430;2023-01-01T15:33:18;5.68;;;1.60;;
23567;SDS011;11962;50.838;4.430;2023-01-01T15:35:45;9.10;;;2.20;;
23567;SDS011;11962;50.838;4.430;2023-01-01T15:40:46;7.05;;;1.65;;
23567;SDS011;11962;50.838;4.430;2023-01-01T15:59:44;6.93;;;2.00;;
23567;SDS011;11962;50.838;4.430;2023-01-01T16:08:49;5.60;;;2.00;;
23567;SDS011;11962;50.838;4.430;2023-01-01T16:11:43;9.00;;;2.10;;
23567;SDS011;11962;50.838;4.430;2023-01-01T16:14:53;5.82;;;1.80;;
23567;SDS011;11962;50.838;4.430;2023-01-01T16:17:56;9.35;;;2.15;;
23567;SDS011;11962;50.838;4.430;2023-01-01T16:20:52;9.13;;;2.35;;
23567;SDS011;11962;50.838;4.430;2023-01-01T16:23:49;8.68;;;2.20;;
23567;SDS011;11962;50.838;4.430;2023-01-01T16:27:50;6.07;;;1.77;;
23567;SDS011;11962;50.838;4.430;2023-01-01T16:30:04;8.05;;;2.05;;
23567;SDS011;11962;50.838;4.430;2023-01-01T16:36:37;7.88;;;2.80;;
23567;SDS011;11962;50.838;4.430;2023-01-01T16:42:09;8.95;;;2.78;;
23567;SDS011;11962;50.838;4.430;2023-01-01T16:52:11;6.38;;;2.15;;
23567;SDS011;11962;50.838;4.430;2023-01-01T16:55:37;10.13;;;2.40;;
23567;SDS011;11962;50.838;4.430;2023-01-01T17:02:07;10.32;;;2.47;;
23567;SDS011;11962;50.838;4.430;2023-01-01T17:08:10;5.65;;;2.08;;
23567;SDS011;11962;50.838;4.430;2023-01-01T17:14:45;6.35;;;2.38;;
23567;SDS011;11962;50.838;4.430;2023-01-01T17:17:43;7.68;;;2.10;;
23567;SDS011;11962;50.838;4.430;2023-01-01T17:20:14;7.47;;;2.10;;
23567;SDS011;11962;50.838;4.430;2023-01-01T17:25:44;10.88;;;2.95;;
23567;SDS011;11962;50.838;4.430;2023-01-01T17:28:44;6.90;;;2.40;;
23567;SDS011;11962;50.838;4.430;2023-01-01T17:31:14;5.32;;;2.00;;
23567;SDS011;11962;50.838;4.430;2023-01-01T17:34:05;5.63;;;2.40;;
23567;SDS011;11962;50.838;4.430;2023-01-01T17:36:54;5.45;;;2.00;;
23567;SDS011;11962;50.838;4.430;2023-01-01T17:39:32;4.95;;;2.30;;
23567;SDS011;11962;50.838;4.430;2023-01-01T17:42:00;6.68;;;2.60;;
23567;SDS011;11962;50.838;4.430;2023-01-01T17:51:02;6.72;;;2.45;;
23567;SDS011;11962;50.838;4.430;2023-01-01T17:53:33;4.53;;;2.72;;
23567;SDS011;11962;50.838;4.430;2023-01-01T17:56:55;5.30;;;2.40;;
23567;SDS011;11962;50.838;4.430;2023-01-01T17:59:29;4.90;;;2.28;;
23567;SDS011;11962;50.838;4.430;2023-01-01T18:02:02;8.02;;;2.70;;
23567;SDS011;11962;50.838;4.430;2023-01-01T18:04:57;4.38;;;2.25;;
23567;SDS011;11962;50.838;4.430;2023-01-01T18:07:49;7.22;;;3.05;;
23567;SDS011;11962;50.838;4.430;2023-01-01T18:10:18;8.90;;;2.83;;
23567;SDS011;11962;50.838;4.430;2023-01-01T18:13:00;7.25;;;2.80;;
23567;SDS011;11962;50.838;4.430;2023-01-01T18:16:11;5.50;;;2.70;;
23567;SDS011;11962;50.838;4.430;2023-01-01T18:18:40;8.18;;;2.80;;
23567;SDS011;11962;50.838;4.430;2023-01-01T18:21:32;7.20;;;2.70;;
23567;SDS011;11962;50.838;4.430;2023-01-01T18:24:13;10.43;;;3.00;;
23567;SDS011;11962;50.838;4.430;2023-01-01T18:27:13;8.95;;;2.85;;
23567;SDS011;11962;50.838;4.430;2023-01-01T18:29:52;9.93;;;3.78;;
23567;SDS011;11962;50.838;4.430;2023-01-01T18:33:12;7.10;;;3.30;;
23567;SDS011;11962;50.838;4.430;2023-01-01T18:35:44;7.85;;;3.65;;
23567;SDS011;11962;50.838;4.430;2023-01-01T18:38:18;10.07;;;3.53;;
23567;SDS011;11962;50.838;4.430;2023-01-01T18:44:10;12.30;;;3.47;;
23567;SDS011;11962;50.838;4.430;2023-01-01T18:46:43;10.65;;;3.42;;
23567;SDS011;11962;50.838;4.430;2023-01-01T18:49:17;8.88;;;3.30;;
23567;SDS011;11962;50.838;4.430;2023-01-01T18:52:32;8.13;;;3.00;;
23567;SDS011;11962;50.838;4.430;2023-01-01T18:58:31;12.13;;;3.38;;
23567;SDS011;11962;50.838;4.430;2023-01-01T19:01:19;8.35;;;3.13;;
23567;SDS011;11962;50.838;4.430;2023-01-01T19:03:53;9.23;;;3.17;;
23567;SDS011;11962;50.838;4.430;2023-01-01T19:06:47;12.90;;;3.50;;
23567;SDS011;11962;50.838;4.430;2023-01-01T19:18:48;13.75;;;4.10;;
23567;SDS011;11962;50.838;4.430;2023-01-01T19:27:22;9.57;;;4.18;;
23567;SDS011;11962;50.838;4.430;2023-01-01T19:30:18;11.02;;;4.13;;
23567;SDS011;11962;50.838;4.430;2023-01-01T19:35:51;12.13;;;4.28;;
23567;SDS011;11962;50.838;4.430;2023-01-01T19:38:54;12.07;;;4.30;;
23567;SDS011;11962;50.838;4.430;2023-01-01T19:41:45;9.32;;;4.10;;
23567;SDS011;11962;50.838;4.430;2023-01-01T19:44:18;14.52;;;4.97;;
23567;SDS011;11962;50.838;4.430;2023-01-01T19:46:43;9.23;;;4.38;;
23567;SDS011;11962;50.838;4.430;2023-01-01T19:49:09;15.85;;;5.03;;
23567;SDS011;11962;50.838;4.430;2023-01-01T19:51:35;11.60;;;4.40;;
23567;SDS011;11962;50.838;4.430;2023-01-01T19:54:00;11.00;;;4.60;;
23567;SDS011;11962;50.838;4.430;2023-01-01T19:56:26;14.55;;;4.60;;
23567;SDS011;11962;50.838;4.430;2023-01-01T19:58:52;13.50;;;4.88;;
23567;SDS011;11962;50.838;4.430;2023-01-01T20:01:18;13.77;;;4.78;;
23567;SDS011;11962;50.838;4.430;2023-01-01T20:03:43;13.13;;;4.90;;
23567;SDS011;11962;50.838;4.430;2023-01-01T20:06:09;16.38;;;5.43;;
23567;SDS011;11962;50.838;4.430;2023-01-01T20:08:35;9.80;;;4.82;;
23567;SDS011;11962;50.838;4.430;2023-01-01T20:11:04;13.40;;;5.20;;
23567;SDS011;11962;50.838;4.430;2023-01-01T20:13:31;12.85;;;4.85;;
23567;SDS011;11962;50.838;4.430;2023-01-01T20:15:56;18.05;;;5.20;;
23567;SDS011;11962;50.838;4.430;2023-01-01T20:18:30;12.05;;;4.45;;
23567;SDS011;11962;50.838;4.430;2023-01-01T20:20:56;12.77;;;4.32;;
23567;SDS011;11962;50.838;4.430;2023-01-01T20:23:48;11.18;;;4.43;;
23567;SDS011;11962;50.838;4.430;2023-01-01T20:26:17;12.07;;;4.28;;
23567;SDS011;11962;50.838;4.430;2023-01-01T20:28:49;14.20;;;4.82;;
23567;SDS011;11962;50.838;4.430;2023-01-01T20:31:36;8.95;;;4.50;;
23567;SDS011;11962;50.838;4.430;2023-01-01T20:34:11;11.82;;;4.63;;
23567;SDS011;11962;50.838;4.430;2023-01-01T20:36:44;16.88;;;4.60;;
23567;SDS011;11962;50.838;4.430;2023-01-01T20:39:31;10.13;;;4.60;;
23567;SDS011;11962;50.838;4.430;2023-01-01T20:41:59;12.40;;;4.78;;
23567;SDS011;11962;50.838;4.430;2023-01-01T20:44:24;15.15;;;4.32;;
23567;SDS011;11962;50.838;4.430;2023-01-01T20:46:50;11.55;;;4.53;;
23567;SDS011;11962;50.838;4.430;2023-01-01T20:49:17;10.98;;;4.50;;
23567;SDS011;11962;50.838;4.430;2023-01-01T20:51:47;11.55;;;4.70;;
23567;SDS011;11962;50.838;4.430;2023-01-01T20:54:15;14.65;;;5.30;;
23567;SDS011;11962;50.838;4.430;2023-01-01T20:56:42;11.10;;;4.55;;
23567;SDS011;11962;50.838;4.430;2023-01-01T20:59:07;13.23;;;4.75;;
23567;SDS011;11962;50.838;4.430;2023-01-01T21:01:35;14.23;;;5.10;;
23567;SDS011;11962;50.838;4.430;2023-01-01T21:04:01;12.85;;;5.50;;
23567;SDS011;11962;50.838;4.430;2023-01-01T21:06:30;11.07;;;4.90;;
23567;SDS011;11962;50.838;4.430;2023-01-01T21:08:56;13.15;;;4.90;;
23567;SDS011;11962;50.838;4.430;2023-01-01T21:11:21;13.65;;;5.00;;
23567;SDS011;11962;50.838;4.430;2023-01-01T21:13:47;12.30;;;4.88;;
23567;SDS011;11962;50.838;4.430;2023-01-01T21:16:21;10.38;;;5.47;;
23567;SDS011;11962;50.838;4.430;2023-01-01T21:18:49;9.02;;;5.05;;
23567;SDS011;11962;50.838;4.430;2023-01-01T21:23:49;12.40;;;5.22;;
23567;SDS011;11962;50.838;4.430;2023-01-01T21:26:38;9.90;;;5.40;;
23567;SDS011;11962;50.838;4.430;2023-01-01T21:29:13;14.13;;;5.10;;
23567;SDS011;11962;50.838;4.430;2023-01-01T21:32:15;10.68;;;4.97;;
23567;SDS011;11962;50.838;4.430;2023-01-01T21:35:08;14.43;;;5.70;;
23567;SDS011;11962;50.838;4.430;2023-01-01T21:38:02;14.45;;;5.85;;
23567;SDS011;11962;50.838;4.430;2023-01-01T21:41:24;12.15;;;5.20;;
23567;SDS011;11962;50.838;4.430;2023-01-01T21:44:06;13.30;;;5.40;;
23567;SDS011;11962;50.838;4.430;2023-01-01T21:47:15;9.30;;;4.97;;
23567;SDS011;11962;50.838;4.430;2023-01-01T21:50:14;13.57;;;5.07;;
23567;SDS011;11962;50.838;4.430;2023-01-01T21:53:00;12.70;;;5.22;;
23567;SDS011;11962;50.838;4.430;2023-01-01T21:59:24;10.85;;;5.40;;
23567;SDS011;11962;50.838;4.430;2023-01-01T22:10:07;11.55;;;4.50;;
23567;SDS011;11962;50.838;4.430;2023-01-01T22:12:37;15.80;;;4.50;;
23567;SDS011;11962;50.838;4.430;2023-01-01T22:15:31;11.43;;;4.00;;
23567;SDS011;11962;50.838;4.430;2023-01-01T22:18:38;11.60;;;4.38;;
23567;SDS011;11962;50.838;4.430;2023-01-01T22:21:34;13.10;;;4.03;;
23567;SDS011;11962;50.838;4.430;2023-01-01T22:24:34;14.77;;;4.25;;
23567;SDS011;11962;50.838;4.430;2023-01-01T22:27:38;8.00;;;3.90;;
23567;SDS011;11962;50.838;4.430;2023-01-01T22:32:58;10.35;;;3.95;;
23567;SDS011;11962;50.838;4.430;2023-01-01T22:35:31;9.40;;;3.72;;
23567;SDS011;11962;50.838;4.430;2023-01-01T22:38:42;12.02;;;4.45;;
23567;SDS011;11962;50.838;4.430;2023-01-01T22:41:08;9.57;;;3.50;;
23567;SDS011;11962;50.838;4.430;2023-01-01T22:43:36;11.57;;;3.85;;
23567;SDS011;11962;50.838;4.430;2023-01-01T22:48:42;12.98;;;3.60;;
23567;SDS011;11962;50.838;4.430;2023-01-01T22:54:04;14.27;;;3.80;;
23567;SDS011;11962;50.838;4.430;2023-01-01T22:56:33;8.70;;;3.25;;
23567;SDS011;11962;50.838;4.430;2023-01-01T22:58:59;9.35;;;3.78;;
23567;SDS011;11962;50.838;4.430;2023-01-01T23:01:25;8.48;;;3.60;;
23567;SDS011;11962;50.838;4.430;2023-01-01T23:04:06;9.82;;;3.88;;
23567;SDS011;11962;50.838;4.430;2023-01-01T23:06:54;13.15;;;3.80;;
23567;SDS011;11962;50.838;4.430;2023-01-01T23:12:36;12.20;;;3.60;;
23567;SDS011;11962;50.838;4.430;2023-01-01T23:24:06;9.55;;;3.40;;
23567;SDS011;11962;50.838;4.430;2023-01-01T23:26:53;9.55;;;3.78;;
23567;SDS011;11962;50.838;4.430;2023-01-01T23:32:56;9.35;;;3.45;;
23567;SDS011;11962;50.838;4.430;2023-01-01T23:36:01;8.27;;;3.40;;
23567;SDS011;11962;50.838;4.430;2023-01-01T23:38:34;9.50;;;3.10;;
23567;SDS011;11962;50.838;4.430;2023-01-01T23:41:01;8.13;;;3.15;;
23567;SDS011;11962;50.838;4.430;2023-01-01T23:43:27;12.77;;;3.55;;
23567;SDS011;11962;50.838;4.430;2023-01-01T23:48:24;7.10;;;2.80;;
23567;SDS011;11962;50.838;4.430;2023-01-01T23:50:49;11.75;;;3.58;;
23567;SDS011;11962;50.838;4.430;2023-01-01T23:53:29;10.80;;;3.63;;
23567;SDS011;11962;50.838;4.430;2023-01-01T23:56:18;10.57;;;3.03;;
23567;SDS011;11962;50.838;4.430;2023-01-01T23:59:22;11.70;;;3.00;;
